sensor_id;sensor_type;location;lat;lon;timestamp;P1;durP1;ratioP1;P2;durP2;ratioP2
30515;SDS011;17297;54.022;10.760;2022-09-09T00:00:48;6.28;;;5.40;;
30515;SDS011;17297;54.022;10.760;2022-09-09T00:03:22;5.95;;;5.05;;
30515;SDS011;17297;54.022;10.760;2022-09-09T00:05:55;7.70;;;5.47;;
30515;SDS011;17297;54.022;10.760;2022-09-09T00:08:44;6.03;;;5.43;;
30515;SDS011;17297;54.022;10.760;2022-09-09T00:11:13;7.45;;;6.13;;
30515;SDS011;17297;54.022;10.760;2022-09-09T00:13:50;8.02;;;5.72;;
30515;SDS011;17297;54.022;10.760;2022-09-09T00:16:19;5.43;;;4.88;;
30515;SDS011;17297;54.022;10.760;2022-09-09T00:18:51;6.88;;;4.88;;
30515;SDS011;17297;54.022;10.760;2022-09-09T00:21:19;5.88;;;4.82;;
30515;SDS011;17297;54.022;10.760;2022-09-09T00:23:53;7.88;;;6.10;;
30515;SDS011;17297;54.022;10.760;2022-09-09T00:26:36;6.90;;;5.35;;
30515;SDS011;17297;54.022;10.760;2022-09-09T00:31:56;8.13;;;5.43;;
30515;SDS011;17297;54.022;10.760;2022-09-09T00:34:30;5.82;;;5.18;;
30515;SDS011;17297;54.022;10.760;2022-09-09T00:36:58;6.97;;;5.90;;
30515;SDS011;17297;54.022;10.760;2022-09-09T00:39:30;7.47;;;6.35;;
30515;SDS011;17297;54.022;10.760;2022-09-09T00:44:35;7.05;;;5.97;;
30515;SDS011;17297;54.022;10.760;2022-09-09T00:50:00;9.88;;;7.53;;
30515;SDS011;17297;54.022;10.760;2022-09-09T00:55:39;8.93;;;7.07;;
30515;SDS011;17297;54.022;10.760;2022-09-09T00:58:08;9.75;;;7.25;;
30515;SDS011;17297;54.022;10.760;2022-09-09T01:00:46;12.98;;;8.10;;
30515;SDS011;17297;54.022;10.760;2022-09-09T01:03:21;11.55;;;7.85;;
30515;SDS011;17297;54.022;10.760;2022-09-09T01:06:00;15.35;;;9.18;;
30515;SDS011;17297;54.022;10.760;2022-09-09T01:11:05;15.82;;;9.80;;
30515;SDS011;17297;54.022;10.760;2022-09-09T01:13:41;11.98;;;7.47;;
30515;SDS011;17297;54.022;10.760;2022-09-09T01:16:12;11.98;;;7.88;;
30515;SDS011;17297;54.022;10.760;2022-09-09T01:18:46;14.38;;;9.68;;
30515;SDS011;17297;54.022;10.760;2022-09-09T01:21:23;13.00;;;9.52;;
30515;SDS011;17297;54.022;10.760;2022-09-09T01:27:00;13.40;;;9.52;;
30515;SDS011;17297;54.022;10.760;2022-09-09T01:29:27;16.00;;;10.70;;
30515;SDS011;17297;54.022;10.760;2022-09-09T01:34:55;15.13;;;8.95;;
30515;SDS011;17297;54.022;10.760;2022-09-09T01:37:21;17.08;;;9.68;;
30515;SDS011;17297;54.022;10.760;2022-09-09T01:39:46;15.20;;;9.50;;
30515;SDS011;17297;54.022;10.760;2022-09-09T01:42:15;14.90;;;10.32;;
30515;SDS011;17297;54.022;10.760;2022-09-09T01:44:41;13.45;;;9.70;;
30515;SDS011;17297;54.022;10.760;2022-09-09T01:47:07;14.90;;;10.25;;
30515;SDS011;17297;54.022;10.760;2022-09-09T01:49:35;17.15;;;9.95;;
30515;SDS011;17297;54.022;10.760;2022-09-09T01:52:08;14.73;;;9.20;;
30515;SDS011;17297;54.022;10.760;2022-09-09T01:54:36;16.02;;;10.95;;
30515;SDS011;17297;54.022;10.760;2022-09-09T02:07:52;17.23;;;9.52;;
30515;SDS011;17297;54.022;10.760;2022-09-09T02:10:50;16.67;;;10.25;;
30515;SDS011;17297;54.022;10.760;2022-09-09T02:13:31;15.68;;;8.73;;
30515;SDS011;17297;54.022;10.760;2022-09-09T02:16:23;16.83;;;10.40;;
30515;SDS011;17297;54.022;10.760;2022-09-09T02:21:49;16.25;;;9.27;;
30515;SDS011;17297;54.022;10.760;2022-09-09T02:24:15;17.30;;;10.05;;
30515;SDS011;17297;54.022;10.760;2022-09-09T02:26:48;19.77;;;11.20;;
30515;SDS011;17297;54.022;10.760;2022-09-09T02:29:22;18.48;;;9.93;;
30515;SDS011;17297;54.022;10.760;2022-09-09T02:31:52;18.80;;;10.23;;
30515;SDS011;17297;54.022;10.760;2022-09-09T02:34:25;16.33;;;9.95;;
30515;SDS011;17297;54.022;10.760;2022-09-09T02:36:53;21.02;;;11.68;;
30515;SDS011;17297;54.022;10.760;2022-09-09T02:39:22;16.05;;;10.73;;
30515;SDS011;17297;54.022;10.760;2022-09-09T02:41:49;13.68;;;10.52;;
30515;SDS011;17297;54.022;10.760;2022-09-09T02:44:15;17.05;;;11.20;;
30515;SDS011;17297;54.022;10.760;2022-09-09T02:49:25;13.55;;;9.30;;
30515;SDS011;17297;54.022;10.760;2022-09-09T02:52:06;16.00;;;9.70;;
30515;SDS011;17297;54.022;10.760;2022-09-09T02:54:35;15.82;;;11.10;;
30515;SDS011;17297;54.022;10.760;2022-09-09T02:57:23;15.82;;;10.23;;
30515;SDS011;17297;54.022;10.760;2022-09-09T02:59:58;17.17;;;10.55;;
30515;SDS011;17297;54.022;10.760;2022-09-09T03:02:25;18.02;;;11.98;;
30515;SDS011;17297;54.022;10.760;2022-09-09T03:04:55;14.88;;;9.40;;
30515;SDS011;17297;54.022;10.760;2022-09-09T03:07:21;18.15;;;10.88;;
30515;SDS011;17297;54.022;10.760;2022-09-09T03:09:48;17.33;;;10.00;;
30515;SDS011;17297;54.022;10.760;2022-09-09T03:12:14;15.52;;;9.73;;
30515;SDS011;17297;54.022;10.760;2022-09-09T03:14:40;14.93;;;8.80;;
30515;SDS011;17297;54.022;10.760;2022-09-09T03:17:06;14.73;;;9.45;;
30515;SDS011;17297;54.022;10.760;2022-09-09T03:19:36;13.02;;;9.02;;
30515;SDS011;17297;54.022;10.760;2022-09-09T03:22:03;17.13;;;10.95;;
30515;SDS011;17297;54.022;10.760;2022-09-09T03:24:30;13.55;;;9.57;;
30515;SDS011;17297;54.022;10.760;2022-09-09T03:26:56;12.15;;;8.73;;
30515;SDS011;17297;54.022;10.760;2022-09-09T03:29:22;13.60;;;9.27;;
30515;SDS011;17297;54.022;10.760;2022-09-09T03:31:49;13.00;;;9.02;;
30515;SDS011;17297;54.022;10.760;2022-09-09T03:34:16;11.30;;;8.05;;
30515;SDS011;17297;54.022;10.760;2022-09-09T03:36:42;11.85;;;8.15;;
30515;SDS011;17297;54.022;10.760;2022-09-09T03:39:07;11.35;;;8.73;;
30515;SDS011;17297;54.022;10.760;2022-09-09T03:41:33;10.98;;;8.07;;
30515;SDS011;17297;54.022;10.760;2022-09-09T03:44:01;10.07;;;7.30;;
30515;SDS011;17297;54.022;10.760;2022-09-09T03:46:29;11.18;;;8.10;;
30515;SDS011;17297;54.022;10.760;2022-09-09T03:48:54;9.88;;;7.60;;
30515;SDS011;17297;54.022;10.760;2022-09-09T03:51:20;10.48;;;7.82;;
30515;SDS011;17297;54.022;10.760;2022-09-09T03:53:47;10.90;;;7.63;;
30515;SDS011;17297;54.022;10.760;2022-09-09T03:56:13;9.57;;;6.65;;
30515;SDS011;17297;54.022;10.760;2022-09-09T03:58:39;8.63;;;7.25;;
30515;SDS011;17297;54.022;10.760;2022-09-09T04:01:12;10.43;;;8.23;;
30515;SDS011;17297;54.022;10.760;2022-09-09T04:03:39;10.35;;;7.32;;
30515;SDS011;17297;54.022;10.760;2022-09-09T04:06:06;9.43;;;7.35;;
30515;SDS011;17297;54.022;10.760;2022-09-09T04:08:34;7.72;;;6.18;;
30515;SDS011;17297;54.022;10.760;2022-09-09T04:11:01;12.10;;;7.68;;
30515;SDS011;17297;54.022;10.760;2022-09-09T04:13:30;11.18;;;8.82;;
30515;SDS011;17297;54.022;10.760;2022-09-09T04:15:57;10.40;;;8.02;;
30515;SDS011;17297;54.022;10.760;2022-09-09T04:18:24;9.57;;;7.40;;
30515;SDS011;17297;54.022;10.760;2022-09-09T04:20:51;11.05;;;7.85;;
30515;SDS011;17297;54.022;10.760;2022-09-09T04:23:20;12.60;;;8.57;;
30515;SDS011;17297;54.022;10.760;2022-09-09T04:25:49;8.88;;;7.15;;
30515;SDS011;17297;54.022;10.760;2022-09-09T04:28:18;8.07;;;6.55;;
30515;SDS011;17297;54.022;10.760;2022-09-09T04:30:45;10.80;;;8.10;;
30515;SDS011;17297;54.022;10.760;2022-09-09T04:33:11;10.77;;;8.45;;
30515;SDS011;17297;54.022;10.760;2022-09-09T04:35:38;10.02;;;7.40;;
30515;SDS011;17297;54.022;10.760;2022-09-09T04:38:04;10.48;;;8.10;;
30515;SDS011;17297;54.022;10.760;2022-09-09T04:40:32;13.10;;;8.52;;
30515;SDS011;17297;54.022;10.760;2022-09-09T04:43:00;9.18;;;7.60;;
30515;SDS011;17297;54.022;10.760;2022-09-09T04:45:28;9.02;;;6.32;;
30515;SDS011;17297;54.022;10.760;2022-09-09T04:47:54;11.60;;;8.55;;
30515;SDS011;17297;54.022;10.760;2022-09-09T04:50:20;11.52;;;8.50;;
30515;SDS011;17297;54.022;10.760;2022-09-09T04:52:46;9.30;;;6.10;;
30515;SDS011;17297;54.022;10.760;2022-09-09T04:55:12;8.85;;;6.53;;
30515;SDS011;17297;54.022;10.760;2022-09-09T04:57:40;9.32;;;6.78;;
30515;SDS011;17297;54.022;10.760;2022-09-09T05:00:06;7.95;;;6.35;;
30515;SDS011;17297;54.022;10.760;2022-09-09T05:02:37;9.00;;;6.75;;
30515;SDS011;17297;54.022;10.760;2022-09-09T05:05:03;10.02;;;7.72;;
30515;SDS011;17297;54.022;10.760;2022-09-09T05:07:29;10.25;;;8.45;;
30515;SDS011;17297;54.022;10.760;2022-09-09T05:09:56;7.20;;;5.57;;
30515;SDS011;17297;54.022;10.760;2022-09-09T05:12:23;9.18;;;6.63;;
30515;SDS011;17297;54.022;10.760;2022-09-09T05:14:50;7.22;;;6.47;;
30515;SDS011;17297;54.022;10.760;2022-09-09T05:17:18;7.72;;;6.80;;
30515;SDS011;17297;54.022;10.760;2022-09-09T05:19:44;8.82;;;7.18;;
30515;SDS011;17297;54.022;10.760;2022-09-09T05:22:10;9.27;;;7.10;;
30515;SDS011;17297;54.022;10.760;2022-09-09T05:24:43;7.90;;;5.88;;
30515;SDS011;17297;54.022;10.760;2022-09-09T05:27:09;8.85;;;5.45;;
30515;SDS011;17297;54.022;10.760;2022-09-09T05:29:37;8.40;;;6.05;;
30515;SDS011;17297;54.022;10.760;2022-09-09T05:32:05;9.57;;;7.65;;
30515;SDS011;17297;54.022;10.760;2022-09-09T05:34:31;7.82;;;6.22;;
30515;SDS011;17297;54.022;10.760;2022-09-09T05:36:56;8.38;;;5.60;;
30515;SDS011;17297;54.022;10.760;2022-09-09T05:39:23;9.55;;;6.95;;
30515;SDS011;17297;54.022;10.760;2022-09-09T05:41:48;10.55;;;7.90;;
30515;SDS011;17297;54.022;10.760;2022-09-09T05:44:14;8.65;;;5.70;;
30515;SDS011;17297;54.022;10.760;2022-09-09T05:46:39;8.65;;;6.35;;
30515;SDS011;17297;54.022;10.760;2022-09-09T05:49:05;10.98;;;7.75;;
30515;SDS011;17297;54.022;10.760;2022-09-09T05:51:32;8.65;;;6.80;;
30515;SDS011;17297;54.022;10.760;2022-09-09T05:54:01;10.73;;;8.45;;
30515;SDS011;17297;54.022;10.760;2022-09-09T05:56:30;12.13;;;8.85;;
30515;SDS011;17297;54.022;10.760;2022-09-09T05:58:58;11.38;;;7.47;;
30515;SDS011;17297;54.022;10.760;2022-09-09T06:01:26;14.00;;;8.40;;
30515;SDS011;17297;54.022;10.760;2022-09-09T06:03:53;10.93;;;7.22;;
30515;SDS011;17297;54.022;10.760;2022-09-09T06:06:22;8.38;;;6.78;;
30515;SDS011;17297;54.022;10.760;2022-09-09T06:08:52;11.80;;;8.57;;
30515;SDS011;17297;54.022;10.760;2022-09-09T06:11:21;10.18;;;7.47;;
30515;SDS011;17297;54.022;10.760;2022-09-09T06:13:48;11.23;;;6.82;;
30515;SDS011;17297;54.022;10.760;2022-09-09T06:16:18;10.73;;;7.93;;
30515;SDS011;17297;54.022;10.760;2022-09-09T06:18:46;10.85;;;7.95;;
30515;SDS011;17297;54.022;10.760;2022-09-09T06:21:17;10.68;;;7.72;;
30515;SDS011;17297;54.022;10.760;2022-09-09T06:23:45;8.90;;;7.50;;
30515;SDS011;17297;54.022;10.760;2022-09-09T06:26:13;11.00;;;7.13;;
30515;SDS011;17297;54.022;10.760;2022-09-09T06:28:43;9.88;;;7.32;;
30515;SDS011;17297;54.022;10.760;2022-09-09T06:31:11;9.48;;;8.10;;
30515;SDS011;17297;54.022;10.760;2022-09-09T06:33:41;9.82;;;8.07;;
30515;SDS011;17297;54.022;10.760;2022-09-09T06:36:10;8.68;;;7.05;;
30515;SDS011;17297;54.022;10.760;2022-09-09T06:38:37;11.63;;;7.28;;
30515;SDS011;17297;54.022;10.760;2022-09-09T06:41:03;11.48;;;7.57;;
30515;SDS011;17297;54.022;10.760;2022-09-09T06:43:31;12.27;;;6.97;;
30515;SDS011;17297;54.022;10.760;2022-09-09T06:46:03;10.50;;;7.57;;
30515;SDS011;17297;54.022;10.760;2022-09-09T06:48:31;7.97;;;6.55;;
30515;SDS011;17297;54.022;10.760;2022-09-09T06:51:03;9.40;;;6.63;;
30515;SDS011;17297;54.022;10.760;2022-09-09T06:53:30;7.13;;;5.93;;
30515;SDS011;17297;54.022;10.760;2022-09-09T06:56:02;9.95;;;7.25;;
30515;SDS011;17297;54.022;10.760;2022-09-09T06:58:43;9.10;;;7.38;;
30515;SDS011;17297;54.022;10.760;2022-09-09T07:01:12;7.75;;;6.15;;
30515;SDS011;17297;54.022;10.760;2022-09-09T07:03:39;9.90;;;7.45;;
30515;SDS011;17297;54.022;10.760;2022-09-09T07:06:06;10.10;;;7.15;;
30515;SDS011;17297;54.022;10.760;2022-09-09T07:08:33;9.68;;;7.45;;
30515;SDS011;17297;54.022;10.760;2022-09-09T07:11:02;7.97;;;6.80;;
30515;SDS011;17297;54.022;10.760;2022-09-09T07:16:03;6.57;;;5.85;;
30515;SDS011;17297;54.022;10.760;2022-09-09T07:18:36;8.35;;;5.95;;
30515;SDS011;17297;54.022;10.760;2022-09-09T07:21:02;8.95;;;5.82;;
30515;SDS011;17297;54.022;10.760;2022-09-09T07:23:29;8.70;;;6.05;;
30515;SDS011;17297;54.022;10.760;2022-09-09T07:25:58;6.30;;;4.78;;
30515;SDS011;17297;54.022;10.760;2022-09-09T07:28:25;7.47;;;6.28;;
30515;SDS011;17297;54.022;10.760;2022-09-09T07:30:57;7.70;;;5.93;;
30515;SDS011;17297;54.022;10.760;2022-09-09T07:33:26;7.10;;;5.57;;
30515;SDS011;17297;54.022;10.760;2022-09-09T07:35:51;6.60;;;5.18;;
30515;SDS011;17297;54.022;10.760;2022-09-09T07:38:18;6.55;;;5.72;;
30515;SDS011;17297;54.022;10.760;2022-09-09T07:40:45;6.03;;;4.97;;
30515;SDS011;17297;54.022;10.760;2022-09-09T07:43:11;7.10;;;5.88;;
30515;SDS011;17297;54.022;10.760;2022-09-09T07:45:37;7.30;;;5.25;;
30515;SDS011;17297;54.022;10.760;2022-09-09T07:48:03;7.53;;;5.90;;
30515;SDS011;17297;54.022;10.760;2022-09-09T07:50:29;6.75;;;5.43;;
30515;SDS011;17297;54.022;10.760;2022-09-09T07:52:54;6.40;;;5.80;;
30515;SDS011;17297;54.022;10.760;2022-09-09T07:55:20;5.40;;;4.35;;
30515;SDS011;17297;54.022;10.760;2022-09-09T07:57:50;6.97;;;5.50;;
30515;SDS011;17297;54.022;10.760;2022-09-09T08:00:16;5.00;;;4.15;;
30515;SDS011;17297;54.022;10.760;2022-09-09T08:02:49;5.90;;;4.03;;
30515;SDS011;17297;54.022;10.760;2022-09-09T08:05:14;5.40;;;4.60;;
30515;SDS011;17297;54.022;10.760;2022-09-09T08:07:43;5.53;;;4.43;;
30515;SDS011;17297;54.022;10.760;2022-09-09T08:10:09;6.78;;;4.97;;
30515;SDS011;17297;54.022;10.760;2022-09-09T08:12:36;4.85;;;4.28;;
30515;SDS011;17297;54.022;10.760;2022-09-09T08:15:02;4.78;;;3.80;;
30515;SDS011;17297;54.022;10.760;2022-09-09T08:17:31;4.70;;;4.18;;
30515;SDS011;17297;54.022;10.760;2022-09-09T08:20:01;5.13;;;4.65;;
30515;SDS011;17297;54.022;10.760;2022-09-09T08:22:31;4.30;;;3.90;;
30515;SDS011;17297;54.022;10.760;2022-09-09T08:24:56;4.90;;;4.43;;
30515;SDS011;17297;54.022;10.760;2022-09-09T08:27:22;5.57;;;4.45;;
30515;SDS011;17297;54.022;10.760;2022-09-09T08:29:47;5.47;;;4.35;;
30515;SDS011;17297;54.022;10.760;2022-09-09T08:32:13;6.38;;;4.70;;
30515;SDS011;17297;54.022;10.760;2022-09-09T08:34:39;4.43;;;3.50;;
30515;SDS011;17297;54.022;10.760;2022-09-09T08:37:09;4.75;;;3.20;;
30515;SDS011;17297;54.022;10.760;2022-09-09T08:39:38;4.30;;;3.90;;
30515;SDS011;17297;54.022;10.760;2022-09-09T08:47:47;4.35;;;3.95;;
30515;SDS011;17297;54.022;10.760;2022-09-09T08:50:27;4.28;;;3.80;;
30515;SDS011;17297;54.022;10.760;2022-09-09T08:58:22;5.18;;;3.55;;
30515;SDS011;17297;54.022;10.760;2022-09-09T09:03:43;4.43;;;3.53;;
30515;SDS011;17297;54.022;10.760;2022-09-09T09:11:39;4.00;;;3.40;;
30515;SDS011;17297;54.022;10.760;2022-09-09T09:14:27;4.07;;;3.60;;
30515;SDS011;17297;54.022;10.760;2022-09-09T09:17:00;5.47;;;3.63;;
30515;SDS011;17297;54.022;10.760;2022-09-09T09:19:29;4.78;;;3.97;;
30515;SDS011;17297;54.022;10.760;2022-09-09T09:24:45;5.47;;;4.13;;
30515;SDS011;17297;54.022;10.760;2022-09-09T09:27:15;5.00;;;4.50;;
30515;SDS011;17297;54.022;10.760;2022-09-09T09:29:49;4.15;;;3.75;;
30515;SDS011;17297;54.022;10.760;2022-09-09T09:32:17;3.88;;;3.53;;
30515;SDS011;17297;54.022;10.760;2022-09-09T09:34:51;5.53;;;4.05;;
30515;SDS011;17297;54.022;10.760;2022-09-09T09:37:27;4.82;;;4.25;;
30515;SDS011;17297;54.022;10.760;2022-09-09T09:39:56;3.35;;;3.05;;
30515;SDS011;17297;54.022;10.760;2022-09-09T09:42:21;3.65;;;3.35;;
30515;SDS011;17297;54.022;10.760;2022-09-09T09:44:48;3.70;;;3.40;;
30515;SDS011;17297;54.022;10.760;2022-09-09T09:47:18;3.95;;;3.55;;
30515;SDS011;17297;54.022;10.760;2022-09-09T09:49:56;3.40;;;3.10;;
30515;SDS011;17297;54.022;10.760;2022-09-09T09:52:31;3.15;;;2.85;;
30515;SDS011;17297;54.022;10.760;2022-09-09T09:55:02;3.72;;;3.25;;
30515;SDS011;17297;54.022;10.760;2022-09-09T09:57:30;4.22;;;3.65;;
30515;SDS011;17297;54.022;10.760;2022-09-09T10:00:18;4.70;;;3.97;;
30515;SDS011;17297;54.022;10.760;2022-09-09T10:03:25;3.53;;;2.75;;
30515;SDS011;17297;54.022;10.760;2022-09-09T10:05:55;2.67;;;2.47;;
30515;SDS011;17297;54.022;10.760;2022-09-09T10:08:23;3.13;;;2.83;;
30515;SDS011;17297;54.022;10.760;2022-09-09T10:13:55;3.55;;;3.25;;
30515;SDS011;17297;54.022;10.760;2022-09-09T10:19:16;3.55;;;3.25;;
30515;SDS011;17297;54.022;10.760;2022-09-09T10:27:44;3.33;;;2.83;;
30515;SDS011;17297;54.022;10.760;2022-09-09T10:30:28;3.20;;;2.90;;
30515;SDS011;17297;54.022;10.760;2022-09-09T10:33:16;2.53;;;2.33;;
30515;SDS011;17297;54.022;10.760;2022-09-09T10:35:57;3.80;;;2.75;;
30515;SDS011;17297;54.022;10.760;2022-09-09T10:41:31;2.78;;;2.55;;
30515;SDS011;17297;54.022;10.760;2022-09-09T10:52:49;2.67;;;2.10;;
30515;SDS011;17297;54.022;10.760;2022-09-09T10:55:24;1.77;;;1.63;;
30515;SDS011;17297;54.022;10.760;2022-09-09T10:57:58;1.83;;;1.70;;
30515;SDS011;17297;54.022;10.760;2022-09-09T11:00:42;3.20;;;1.92;;
30515;SDS011;17297;54.022;10.760;2022-09-09T11:03:29;2.33;;;2.10;;
30515;SDS011;17297;54.022;10.760;2022-09-09T11:08:36;1.83;;;1.73;;
30515;SDS011;17297;54.022;10.760;2022-09-09T11:11:06;3.00;;;1.73;;
30515;SDS011;17297;54.022;10.760;2022-09-09T11:14:01;2.08;;;1.90;;
30515;SDS011;17297;54.022;10.760;2022-09-09T11:16:33;1.85;;;1.75;;
30515;SDS011;17297;54.022;10.760;2022-09-09T11:19:50;2.90;;;1.83;;
30515;SDS011;17297;54.022;10.760;2022-09-09T11:22:00;2.33;;;2.13;;
30515;SDS011;17297;54.022;10.760;2022-09-09T11:24:36;2.33;;;2.13;;
30515;SDS011;17297;54.022;10.760;2022-09-09T11:27:17;1.70;;;1.60;;
30515;SDS011;17297;54.022;10.760;2022-09-09T11:32:33;2.00;;;1.90;;
30515;SDS011;17297;54.022;10.760;2022-09-09T11:35:14;1.73;;;1.63;;
30515;SDS011;17297;54.022;10.760;2022-09-09T11:40:27;2.22;;;1.80;;
30515;SDS011;17297;54.022;10.760;2022-09-09T11:43:03;2.80;;;2.20;;
30515;SDS011;17297;54.022;10.760;2022-09-09T11:45:34;2.10;;;1.90;;
30515;SDS011;17297;54.022;10.760;2022-09-09T11:48:01;2.40;;;1.90;;
30515;SDS011;17297;54.022;10.760;2022-09-09T11:50:32;2.38;;;1.67;;
30515;SDS011;17297;54.022;10.760;2022-09-09T11:53:04;1.67;;;1.58;;
30515;SDS011;17297;54.022;10.760;2022-09-09T11:55:38;2.10;;;1.90;;
30515;SDS011;17297;54.022;10.760;2022-09-09T12:00:36;1.40;;;1.30;;
30515;SDS011;17297;54.022;10.760;2022-09-09T12:03:05;1.80;;;1.48;;
30515;SDS011;17297;54.022;10.760;2022-09-09T12:05:51;1.65;;;1.17;;
30515;SDS011;17297;54.022;10.760;2022-09-09T12:08:20;1.70;;;1.60;;
30515;SDS011;17297;54.022;10.760;2022-09-09T12:10:54;2.33;;;2.17;;
30515;SDS011;17297;54.022;10.760;2022-09-09T12:13:23;2.47;;;1.52;;
30515;SDS011;17297;54.022;10.760;2022-09-09T12:15:54;1.52;;;1.10;;
30515;SDS011;17297;54.022;10.760;2022-09-09T12:18:22;2.58;;;1.40;;
30515;SDS011;17297;54.022;10.760;2022-09-09T12:23:37;1.27;;;1.17;;
30515;SDS011;17297;54.022;10.760;2022-09-09T12:29:18;1.30;;;1.02;;
30515;SDS011;17297;54.022;10.760;2022-09-09T12:32:06;1.00;;;0.90;;
30515;SDS011;17297;54.022;10.760;2022-09-09T12:40:21;1.20;;;1.10;;
30515;SDS011;17297;54.022;10.760;2022-09-09T12:42:48;0.95;;;0.93;;
30515;SDS011;17297;54.022;10.760;2022-09-09T12:45:16;2.05;;;0.90;;
30515;SDS011;17297;54.022;10.760;2022-09-09T12:47:48;0.80;;;0.80;;
30515;SDS011;17297;54.022;10.760;2022-09-09T12:50:21;1.95;;;1.30;;
30515;SDS011;17297;54.022;10.760;2022-09-09T12:52:57;0.90;;;0.90;;
30515;SDS011;17297;54.022;10.760;2022-09-09T12:55:30;0.85;;;0.80;;
30515;SDS011;17297;54.022;10.760;2022-09-09T12:57:58;1.30;;;1.20;;
30515;SDS011;17297;54.022;10.760;2022-09-09T13:00:26;2.08;;;1.20;;
30515;SDS011;17297;54.022;10.760;2022-09-09T13:02:53;3.10;;;1.10;;
30515;SDS011;17297;54.022;10.760;2022-09-09T13:05:22;0.90;;;0.90;;
30515;SDS011;17297;54.022;10.760;2022-09-09T13:07:50;1.10;;;0.95;;
30515;SDS011;17297;54.022;10.760;2022-09-09T13:10:21;2.03;;;1.23;;
30515;SDS011;17297;54.022;10.760;2022-09-09T13:12:54;0.63;;;0.63;;
30515;SDS011;17297;54.022;10.760;2022-09-09T13:15:23;1.23;;;0.70;;
30515;SDS011;17297;54.022;10.760;2022-09-09T13:17:58;1.45;;;1.20;;
30515;SDS011;17297;54.022;10.760;2022-09-09T13:20:26;0.60;;;0.60;;
30515;SDS011;17297;54.022;10.760;2022-09-09T13:22:53;2.42;;;1.33;;
30515;SDS011;17297;54.022;10.760;2022-09-09T13:25:21;1.05;;;0.82;;
30515;SDS011;17297;54.022;10.760;2022-09-09T13:28:00;1.00;;;0.88;;
30515;SDS011;17297;54.022;10.760;2022-09-09T13:30:29;1.08;;;0.90;;
30515;SDS011;17297;54.022;10.760;2022-09-09T13:33:01;0.60;;;0.60;;
30515;SDS011;17297;54.022;10.760;2022-09-09T13:35:44;2.03;;;0.93;;
30515;SDS011;17297;54.022;10.760;2022-09-09T13:38:15;0.80;;;0.80;;
30515;SDS011;17297;54.022;10.760;2022-09-09T13:40:54;0.70;;;0.70;;
30515;SDS011;17297;54.022;10.760;2022-09-09T13:43:23;1.35;;;1.00;;
30515;SDS011;17297;54.022;10.760;2022-09-09T13:45:57;1.38;;;0.82;;
30515;SDS011;17297;54.022;10.760;2022-09-09T13:48:27;0.70;;;0.60;;
30515;SDS011;17297;54.022;10.760;2022-09-09T13:50:54;1.25;;;0.88;;
30515;SDS011;17297;54.022;10.760;2022-09-09T13:53:23;1.80;;;0.90;;
30515;SDS011;17297;54.022;10.760;2022-09-09T13:55:49;0.70;;;0.70;;
30515;SDS011;17297;54.022;10.760;2022-09-09T13:58:16;3.45;;;1.30;;
30515;SDS011;17297;54.022;10.760;2022-09-09T14:00:45;1.67;;;1.05;;
30515;SDS011;17297;54.022;10.760;2022-09-09T14:03:11;1.65;;;0.80;;
30515;SDS011;17297;54.022;10.760;2022-09-09T14:05:37;1.65;;;1.00;;
30515;SDS011;17297;54.022;10.760;2022-09-09T14:08:06;2.00;;;0.88;;
30515;SDS011;17297;54.022;10.760;2022-09-09T14:10:32;1.38;;;0.90;;
30515;SDS011;17297;54.022;10.760;2022-09-09T14:13:00;0.80;;;0.70;;
30515;SDS011;17297;54.022;10.760;2022-09-09T14:15:26;1.52;;;0.98;;
30515;SDS011;17297;54.022;10.760;2022-09-09T14:17:52;2.22;;;1.20;;
30515;SDS011;17297;54.022;10.760;2022-09-09T14:20:17;2.88;;;1.00;;
30515;SDS011;17297;54.022;10.760;2022-09-09T14:22:44;2.03;;;1.45;;
30515;SDS011;17297;54.022;10.760;2022-09-09T14:25:09;1.35;;;0.80;;
30515;SDS011;17297;54.022;10.760;2022-09-09T14:27:35;0.93;;;0.85;;
30515;SDS011;17297;54.022;10.760;2022-09-09T14:30:00;0.80;;;0.73;;
30515;SDS011;17297;54.022;10.760;2022-09-09T14:32:26;0.73;;;0.73;;
30515;SDS011;17297;54.022;10.760;2022-09-09T14:34:52;0.73;;;0.63;;
30515;SDS011;17297;54.022;10.760;2022-09-09T14:37:17;0.90;;;0.70;;
30515;SDS011;17297;54.022;10.760;2022-09-09T14:39:43;0.80;;;0.75;;
30515;SDS011;17297;54.022;10.760;2022-09-09T14:42:12;1.20;;;0.70;;
30515;SDS011;17297;54.022;10.760;2022-09-09T14:44:38;0.80;;;0.80;;
30515;SDS011;17297;54.022;10.760;2022-09-09T14:47:04;0.70;;;0.70;;
30515;SDS011;17297;54.022;10.760;2022-09-09T14:49:30;1.17;;;0.98;;
30515;SDS011;17297;54.022;10.760;2022-09-09T14:51:58;0.70;;;0.70;;
30515;SDS011;17297;54.022;10.760;2022-09-09T14:54:24;0.82;;;0.82;;
30515;SDS011;17297;54.022;10.760;2022-09-09T14:56:49;0.70;;;0.70;;
30515;SDS011;17297;54.022;10.760;2022-09-09T14:59:14;0.88;;;0.80;;
30515;SDS011;17297;54.022;10.760;2022-09-09T15:01:40;0.70;;;0.70;;
30515;SDS011;17297;54.022;10.760;2022-09-09T15:04:06;1.10;;;1.00;;
30515;SDS011;17297;54.022;10.760;2022-09-09T15:06:33;1.58;;;0.98;;
30515;SDS011;17297;54.022;10.760;2022-09-09T15:09:01;0.85;;;0.85;;
30515;SDS011;17297;54.022;10.760;2022-09-09T15:11:28;2.28;;;0.98;;
30515;SDS011;17297;54.022;10.760;2022-09-09T15:13:59;0.90;;;0.90;;
30515;SDS011;17297;54.022;10.760;2022-09-09T15:16:26;2.00;;;1.23;;
30515;SDS011;17297;54.022;10.760;2022-09-09T15:18:53;1.30;;;1.20;;
30515;SDS011;17297;54.022;10.760;2022-09-09T15:21:22;3.00;;;1.58;;
30515;SDS011;17297;54.022;10.760;2022-09-09T15:23:48;1.33;;;1.02;;
30515;SDS011;17297;54.022;10.760;2022-09-09T15:26:15;1.65;;;1.20;;
30515;SDS011;17297;54.022;10.760;2022-09-09T15:28:42;0.93;;;0.93;;
30515;SDS011;17297;54.022;10.760;2022-09-09T15:33:36;1.33;;;1.20;;
30515;SDS011;17297;54.022;10.760;2022-09-09T15:36:15;1.55;;;1.00;;
30515;SDS011;17297;54.022;10.760;2022-09-09T15:38:43;1.20;;;1.10;;
30515;SDS011;17297;54.022;10.760;2022-09-09T15:41:09;2.05;;;1.02;;
30515;SDS011;17297;54.022;10.760;2022-09-09T15:43:35;1.05;;;1.02;;
30515;SDS011;17297;54.022;10.760;2022-09-09T15:46:05;1.25;;;1.17;;
30515;SDS011;17297;54.022;10.760;2022-09-09T15:48:50;1.23;;;1.13;;
30515;SDS011;17297;54.022;10.760;2022-09-09T15:51:17;1.75;;;1.00;;
30515;SDS011;17297;54.022;10.760;2022-09-09T15:53:43;1.23;;;1.13;;
30515;SDS011;17297;54.022;10.760;2022-09-09T15:56:10;1.38;;;1.10;;
30515;SDS011;17297;54.022;10.760;2022-09-09T15:58:35;1.98;;;1.17;;
30515;SDS011;17297;54.022;10.760;2022-09-09T16:01:08;1.13;;;1.08;;
30515;SDS011;17297;54.022;10.760;2022-09-09T16:03:39;0.98;;;0.98;;
30515;SDS011;17297;54.022;10.760;2022-09-09T16:06:07;1.88;;;1.00;;
30515;SDS011;17297;54.022;10.760;2022-09-09T16:08:41;0.93;;;0.90;;
30515;SDS011;17297;54.022;10.760;2022-09-09T16:11:09;1.38;;;1.20;;
30515;SDS011;17297;54.022;10.760;2022-09-09T16:13:37;1.73;;;0.88;;
30515;SDS011;17297;54.022;10.760;2022-09-09T16:16:05;0.85;;;0.85;;
30515;SDS011;17297;54.022;10.760;2022-09-09T16:18:44;1.27;;;1.10;;
30515;SDS011;17297;54.022;10.760;2022-09-09T16:21:15;1.35;;;1.00;;
30515;SDS011;17297;54.022;10.760;2022-09-09T16:23:45;1.40;;;1.30;;
30515;SDS011;17297;54.022;10.760;2022-09-09T16:26:12;1.60;;;1.00;;
30515;SDS011;17297;54.022;10.760;2022-09-09T16:28:38;0.60;;;0.60;;
30515;SDS011;17297;54.022;10.760;2022-09-09T16:31:05;0.70;;;0.70;;
30515;SDS011;17297;54.022;10.760;2022-09-09T16:33:32;0.70;;;0.70;;
30515;SDS011;17297;54.022;10.760;2022-09-09T16:35:57;0.73;;;0.73;;